Tropical Cyclones
[Index]
Main Index Home Page Stock Weather Photos Extreme Storms Discussion Storm News and Storm Chasing Reports Tropical Cyclones / Hurricanes / Typhoons Weather Data and Links Wild Fires / Bushfires Weather Observation Techniques Weather Picture Catalogue Tornado Pictures and Reports Stock Video Footage and DVDs for sale
Season 1986-1987 Tropical Cyclone JASON Track Map
Season 1986-1987 Summaries: [BoM-AU] [JTWC-AU] [JTWC-SIO] [JTWC-SPAC] [JTWC-SH]
<<- Previous TC | JTWC 1986-1987 Season | Next TC ->>

click for intensity scale information  Lat/long Grid: Show Hide

 Date Labels: Show Hide

Joint Typhoon Warning Centre Cyclone Data

Name: JASON

04 Feb 1987 18:00 UTC to 13 Feb 1987 00:00 UTC

    date/time    lat    long     hPa   cat  kts
1987-02-04 18   12.2   139.8                  25          
1987-02-05 00   12.0   140.2                  25          
1987-02-05 06   12.0   140.6                  25          
1987-02-05 12   11.9   140.9                  25          
1987-02-05 18   11.9   141.2                  25          
1987-02-06 00   11.9   141.6                  25          
1987-02-06 06   12.1   142.0                  25          
1987-02-06 12   12.5   142.0                  25          
1987-02-06 18   12.9   141.4                  25          
1987-02-07 00   13.2   140.7            1     40          
1987-02-07 06   13.2   140.3                  30          
1987-02-07 12   13.2   139.9                  35          
1987-02-07 18   13.2   139.5                  35          
1987-02-08 00   13.2   139.1            1     40          
1987-02-08 06   13.2   138.6            1     40          
1987-02-08 12   13.2   138.1            1     45          
1987-02-08 18   13.2   137.5            1     50          
1987-02-09 00   13.2   137.1            2     55          
1987-02-09 06   13.1   136.8            2     55          
1987-02-09 12   13.0   136.5            2     55          
1987-02-09 18   12.9   136.3            2     55          
1987-02-10 00   12.8   136.1            2     60          
1987-02-10 06   12.6   136.0            2     60          
1987-02-10 12   12.4   135.8            2     60          
1987-02-10 18   12.3   135.5            2     60          
1987-02-11 00   12.4   135.2            2     65          
1987-02-11 06   13.0   135.4            2     65          
1987-02-11 12   13.5   136.2            2     65          
1987-02-11 18   13.9   137.0            2     60          
1987-02-12 00   14.5   137.7            2     55          
1987-02-12 06   14.9   138.4            1     50          
1987-02-12 12   15.1   139.2            1     45          
1987-02-12 18   15.7   140.0            1     40          
1987-02-13 00   16.8   140.4                  35          
Winds are 1-min average.

Tropical cyclone tracks developed by Michael Bath using data from the Joint Typhoon Warning Centre Best Tracks and Google Maps.


[Australian Severe Weather index] [Copyright Notice] [Email Contacts] [Search This Site] [Privacy Policy]
Document: tropical_cyclone_jason.htm Updated: 18 September 2016